createdAt,value
2022-11-18T00:03:31.310Z,9.13
2022-11-18T00:23:59.863Z,9.18
2022-11-18T03:52:07.564Z,8.81
2022-11-18T04:13:14.108Z,8.51
2022-11-18T04:18:18.569Z,8.59
2022-11-18T04:23:12.110Z,8.60
2022-11-18T04:28:29.965Z,8.61
2022-11-18T04:33:40.369Z,8.42
2022-11-18T04:38:46.876Z,8.29
2022-11-18T04:43:54.504Z,8.42
2022-11-18T04:49:04.255Z,8.43
2022-11-18T05:14:39.207Z,8.10
2022-11-18T05:19:55.817Z,8.13
2022-11-18T05:36:41.509Z,8.24
2022-11-18T05:57:07.671Z,7.99
2022-11-18T06:07:16.778Z,8.03
2022-11-18T06:12:17.234Z,8.01
2022-11-18T06:17:21.186Z,8.01
2022-11-18T06:22:15.038Z,7.99
2022-11-18T06:27:12.592Z,8.06
2022-11-18T06:32:13.328Z,7.87
2022-11-18T06:37:15.407Z,8.03
2022-11-18T06:42:08.858Z,8.01
2022-11-18T06:47:05.411Z,8.20
2022-11-18T06:51:59.119Z,8.08
2022-11-18T06:56:54.312Z,8.06
2022-11-18T07:01:47.723Z,8.17
2022-11-18T07:06:42.492Z,8.04
2022-11-18T07:11:38.275Z,8.09
2022-11-18T07:16:31.621Z,8.23
2022-11-18T07:21:27.961Z,8.20
2022-11-18T07:26:24.018Z,8.06
2022-11-18T07:31:20.148Z,8.00
2022-11-18T07:36:16.071Z,7.84
2022-11-18T07:41:12.644Z,7.81
2022-11-18T07:46:17.088Z,7.85
2022-11-18T07:51:11.594Z,7.67
2022-11-18T07:56:06.346Z,7.64
2022-11-18T08:01:00.156Z,7.79
2022-11-18T08:05:55.509Z,7.90
2022-11-18T08:10:48.946Z,7.93
2022-11-18T08:15:42.856Z,7.90
2022-11-18T08:20:36.457Z,8.14
2022-11-18T08:25:31.106Z,8.21
2022-11-18T08:30:24.525Z,8.25
2022-11-18T08:35:18.068Z,8.40
2022-11-18T08:40:12.379Z,8.55
2022-11-18T08:45:09.513Z,8.77
2022-11-18T08:50:03.880Z,8.89
2022-11-18T08:54:57.194Z,8.98
2022-11-18T08:59:50.577Z,8.98
2022-11-18T09:04:45.506Z,8.89
2022-11-18T09:09:40.854Z,8.77
2022-11-18T09:19:48.971Z,8.87
2022-11-18T09:24:43.591Z,8.79
2022-11-18T09:29:37.021Z,8.77
2022-11-18T09:34:30.885Z,8.76
2022-11-18T09:46:09.743Z,8.77
2022-11-18T09:51:03.355Z,8.76
2022-11-18T09:55:57.351Z,8.87
2022-11-18T10:00:50.906Z,8.98
2022-11-18T10:05:54.284Z,9.01
2022-11-18T10:11:04.803Z,9.14
2022-11-18T10:16:15.761Z,9.15
2022-11-18T10:21:24.522Z,9.30
2022-11-18T10:26:36.030Z,9.22
2022-11-18T10:31:29.964Z,9.24
2022-11-18T10:36:32.413Z,9.29
2022-11-18T10:41:25.758Z,9.37
2022-11-18T10:46:29.402Z,9.36
2022-11-18T10:51:25.932Z,9.32
2022-11-18T10:56:20.676Z,9.36
2022-11-18T11:01:24.317Z,9.28
2022-11-18T11:06:38.054Z,9.35
2022-11-18T11:11:36.359Z,9.25
2022-11-18T11:16:32.629Z,9.08
2022-11-18T11:21:29.083Z,9.08
2022-11-18T11:32:06.712Z,9.39
2022-11-18T11:37:14.054Z,9.41
2022-11-18T11:42:23.021Z,9.32
2022-11-18T11:47:49.459Z,9.21
2022-11-18T11:52:57.656Z,9.29
2022-11-18T11:58:19.480Z,9.26
2022-11-18T12:03:50.312Z,9.14
2022-11-18T12:09:07.825Z,9.20
2022-11-18T12:14:11.835Z,9.31
2022-11-18T12:19:13.687Z,9.25
2022-11-18T12:24:40.864Z,9.14
2022-11-18T12:30:00.015Z,9.05
2022-11-18T12:35:03.779Z,9.35
2022-11-18T12:40:01.569Z,9.45
2022-11-18T12:44:56.238Z,9.35
2022-11-18T12:50:14.740Z,9.30
2022-11-18T12:55:19.132Z,9.48
2022-11-18T13:00:32.815Z,9.57
2022-11-18T13:05:29.195Z,9.57
2022-11-18T13:10:28.784Z,9.38
2022-11-18T13:15:41.937Z,9.54
2022-11-18T13:20:38.338Z,9.57
2022-11-18T13:25:31.617Z,9.56
2022-11-18T13:30:29.808Z,9.41
2022-11-18T13:35:27.363Z,9.39
2022-11-18T13:40:25.347Z,9.42
2022-11-18T13:45:19.422Z,9.37
2022-11-18T13:50:26.489Z,9.37
2022-11-18T13:55:27.301Z,9.32
2022-11-18T14:00:34.102Z,9.43
2022-11-18T14:05:29.633Z,9.58
2022-11-18T14:10:36.702Z,9.44
2022-11-18T14:15:43.589Z,9.57
2022-11-18T14:20:38.960Z,9.34
2022-11-18T14:25:35.929Z,9.22
2022-11-18T14:30:36.908Z,9.21
2022-11-18T14:35:33.551Z,9.13
2022-11-18T14:40:29.685Z,8.93
2022-11-18T14:45:24.219Z,8.95
2022-11-18T14:50:18.428Z,8.92
2022-11-18T14:55:12.834Z,8.87
2022-11-18T15:00:13.909Z,8.88
2022-11-18T15:05:08.264Z,8.78
2022-11-18T15:10:01.953Z,8.64
2022-11-18T15:14:55.236Z,8.67
2022-11-18T15:19:49.984Z,8.53
2022-11-18T15:24:43.287Z,8.52
2022-11-18T15:29:36.537Z,8.56
2022-11-18T15:34:30.340Z,8.63
2022-11-18T15:39:25.010Z,8.74
2022-11-18T15:44:19.031Z,8.55
2022-11-18T15:49:17.624Z,8.51
2022-11-18T15:54:12.631Z,8.31
2022-11-18T15:59:16.759Z,8.46
2022-11-18T16:04:12.692Z,8.43
2022-11-18T16:09:07.930Z,8.42
2022-11-18T16:14:03.161Z,8.48
2022-11-18T16:18:58.793Z,8.34
2022-11-18T16:24:18.724Z,8.34
2022-11-18T16:29:15.731Z,8.48
2022-11-18T16:34:29.926Z,8.50
2022-11-18T16:39:26.300Z,8.38
2022-11-18T16:44:19.830Z,8.42
2022-11-18T16:49:17.452Z,8.40
2022-11-18T16:54:19.106Z,8.51
2022-11-18T16:59:15.709Z,8.53
2022-11-18T17:04:18.976Z,8.43
2022-11-18T17:09:17.237Z,8.42
2022-11-18T17:14:21.054Z,8.43
2022-11-18T17:19:21.835Z,8.34
2022-11-18T17:24:24.012Z,8.34
2022-11-18T17:29:17.969Z,8.39
2022-11-18T17:34:13.071Z,8.32
2022-11-18T17:39:08.414Z,8.28
2022-11-18T17:44:03.834Z,8.40
2022-11-18T17:48:57.770Z,8.39
2022-11-18T17:53:51.751Z,8.28
2022-11-18T17:58:47.232Z,8.27
2022-11-18T18:03:42.293Z,8.16
2022-11-18T18:08:36.154Z,8.25
2022-11-18T18:13:46.932Z,8.29
2022-11-18T18:18:41.847Z,8.32
2022-11-18T18:23:36.640Z,8.37
2022-11-18T18:28:30.200Z,8.35
2022-11-18T18:33:23.776Z,8.47
2022-11-18T18:38:28.633Z,8.42
2022-11-18T18:43:22.693Z,8.30
2022-11-18T18:49:11.155Z,8.27
2022-11-18T18:54:43.818Z,8.39
2022-11-18T19:00:25.185Z,8.40
2022-11-18T19:12:32.197Z,8.24
2022-11-18T19:18:25.960Z,8.29
2022-11-18T19:24:13.914Z,8.39
2022-11-18T19:30:23.333Z,8.21
2022-11-18T19:35:55.679Z,8.18
2022-11-18T19:41:00.355Z,8.24
2022-11-18T19:46:05.815Z,8.18
2022-11-18T19:51:15.489Z,8.22
2022-11-18T19:56:15.455Z,8.30
2022-11-18T20:01:36.075Z,8.29
2022-11-18T20:06:45.826Z,8.06
2022-11-18T20:11:39.692Z,8.03
2022-11-18T20:16:47.530Z,7.98
2022-11-18T20:21:43.336Z,8.04
2022-11-18T20:26:39.539Z,8.21
2022-11-18T20:31:34.705Z,8.13
2022-11-18T20:36:31.145Z,8.11
2022-11-18T20:41:26.709Z,7.91
2022-11-18T20:46:22.666Z,7.97
2022-11-18T20:51:20.040Z,7.99
2022-11-18T20:56:15.888Z,8.08
2022-11-18T21:01:11.511Z,7.93
2022-11-18T21:06:21.133Z,7.88
2022-11-18T21:11:40.203Z,7.92
2022-11-18T21:16:36.360Z,8.04
2022-11-18T21:21:48.640Z,7.83
2022-11-18T21:26:46.595Z,7.69
2022-11-18T21:31:40.523Z,7.67
2022-11-18T21:36:38.937Z,7.92
2022-11-18T21:41:36.932Z,7.90
2022-11-18T21:46:31.438Z,7.88
2022-11-18T21:51:26.952Z,7.40
2022-11-18T21:56:25.098Z,7.33
2022-11-18T22:01:21.118Z,7.31
2022-11-18T22:06:15.237Z,7.49
2022-11-18T22:11:11.748Z,7.42
2022-11-18T22:16:09.608Z,7.29
2022-11-18T22:21:05.443Z,7.38
2022-11-18T22:26:02.738Z,7.25
2022-11-18T22:31:03.426Z,7.28
2022-11-18T22:36:02.543Z,7.22
2022-11-18T22:41:01.455Z,7.17
2022-11-18T22:46:02.106Z,7.16
2022-11-18T22:51:01.604Z,7.12
2022-11-18T22:56:03.675Z,7.08
2022-11-18T23:01:01.081Z,7.18
2022-11-18T23:05:54.467Z,6.89
2022-11-18T23:10:51.239Z,6.79
2022-11-18T23:15:44.625Z,6.88
2022-11-18T23:20:37.940Z,6.77
2022-11-18T23:25:31.218Z,6.85
2022-11-18T23:30:25.953Z,6.60
2022-11-18T23:35:19.167Z,6.67
2022-11-18T23:40:13.999Z,6.72
2022-11-18T23:45:08.693Z,6.89
2022-11-18T23:50:03.307Z,6.78
2022-11-18T23:54:57.574Z,6.83
2022-11-18T23:59:50.947Z,6.89
